Hoffman, North Carolina
Current Conditions -  °F | °C
As of 6:56 AM on Thursday 23 Oct 2014 (Local Time) from KHFF Reporting Station
Clear Clear  
Wind Chill: 39°   Ceiling: Unl
Heat Index: 43°   Visibility: 10mi
Dew Point: 41°   Wind: 6mph
Humidity: 94%   Direction: 300°WNW
Pressure: 30.05"   Gusts: NA
Location:  35.03°N, 79.55°W
Report Text: KHFF 231056Z AUTO 30005KT 10SM CLR 06/05 A3005 RMK AO2 SLP179 T00590050
Loading
Personal Weather Stations






























Interactive Weather Map
Tropical Storm Tracking
New forecast layout! Learn more

10-Day Weather Forecast

Advertisements
Track Severe Weather on mobile